Time;durP1;ratioP1;P1;durP2;ratioP2;P2;SDS_P1;SDS_P2;PMS_P1;PMS_P2;Temp;Humidity;BMP_temperature;BMP_pressure;BME280_temperature;BME280_humidity;BME280_pressure;Samples;Min_cycle;Max_cycle;Signal;HPM_P1;HPM_P2
2023/08/16 00:01:48;;;;;;;21.20;16.10;;;;;;;25.89;62.59;100823.65;108195;1257;62173;-67
2023/08/16 00:04:16;;;;;;;22.60;16.80;;;;;;;25.69;63.15;100820.98;108332;1251;59575;-67
2023/08/16 00:06:44;;;;;;;20.40;15.70;;;;;;;25.64;63.37;100825.72;108242;1251;72647;-67
2023/08/16 00:09:11;;;;;;;28.20;17.20;;;;;;;25.51;63.49;100830.11;108288;1256;70261;-68
2023/08/16 00:11:38;;;;;;;26.00;17.50;;;;;;;25.62;63.43;100826.05;108252;1251;72465;-67
2023/08/16 00:14:06;;;;;;;24.30;17.30;;;;;;;25.86;63.04;100828.81;108258;1254;61696;-67
2023/08/16 00:16:33;;;;;;;23.40;17.00;;;;;;;25.78;63.14;100832.55;108287;1251;60373;-67
2023/08/16 00:19:01;;;;;;;22.50;16.00;;;;;;;25.72;63.17;100830.55;108316;1252;75772;-66
2023/08/16 00:21:28;;;;;;;24.80;17.50;;;;;;;25.76;62.81;100835.24;108255;1256;70445;-67
2023/08/16 00:23:55;;;;;;;24.10;17.10;;;;;;;25.70;63.19;100834.32;108295;1251;72614;-67
2023/08/16 00:26:23;;;;;;;33.90;18.20;;;;;;;25.56;63.65;100835.98;108323;1251;60458;-65
2023/08/16 00:28:51;;;;;;;28.70;18.60;;;;;;;25.51;64.18;100836.27;108359;1251;60376;-67
2023/08/16 00:31:19;;;;;;;23.20;17.10;;;;;;;25.53;64.21;100839.44;108343;1251;73737;-66
2023/08/16 00:33:47;;;;;;;28.80;20.50;;;;;;;25.63;63.72;100840.39;108291;1251;70004;-67
2023/08/16 00:36:15;;;;;;;27.60;20.60;;;;;;;25.60;63.96;100838.17;108243;1257;72601;-66
2023/08/16 00:38:42;;;;;;;27.40;17.60;;;;;;;25.40;64.84;100843.14;108259;1251;60220;-66
2023/08/16 00:41:11;;;;;;;28.00;20.10;;;;;;;25.41;65.01;100845.77;108022;1251;60401;-67
2023/08/16 00:43:38;;;;;;;27.10;19.30;;;;;;;25.56;64.55;100840.08;108249;1251;72579;-67
2023/08/16 00:46:10;;;;;;;21.20;16.60;;;;;;;25.58;64.27;100841.70;108272;1251;68908;-66
2023/08/16 00:48:40;;;;;;;27.10;18.20;;;;;;;25.52;64.20;100843.88;108283;1251;72089;-66
2023/08/16 00:51:08;;;;;;;23.60;17.30;;;;;;;25.67;64.01;100842.20;108238;1251;60405;-67
2023/08/16 00:53:36;;;;;;;21.00;16.50;;;;;;;25.68;63.52;100842.83;108309;1252;60434;-68
2023/08/16 00:56:04;;;;;;;25.60;18.70;;;;;;;25.68;63.59;100841.55;108109;1251;71649;-66
2023/08/16 00:58:32;;;;;;;20.10;16.50;;;;;;;25.74;63.36;100840.30;108178;1251;69418;-68
2023/08/16 01:00:59;;;;;;;27.50;18.50;;;;;;;25.71;63.49;100846.64;108124;1251;72625;-66
2023/08/16 01:03:27;;;;;;;21.90;18.50;;;;;;;25.79;63.20;100844.39;108271;1251;60612;-67
2023/08/16 01:05:54;;;;;;;25.60;18.00;;;;;;;25.42;64.29;100843.14;108027;1251;151544;-67
2023/08/16 01:09:12;;;;;;;23.80;18.00;;;;;;;24.35;69.25;100846.98;104875;1291;600916;-67
2023/08/16 01:11:58;;;;;;;24.30;18.20;;;;;;;25.15;66.09;100848.52;107291;1264;60993;-67
2023/08/16 01:14:47;;;;;;;21.70;16.30;;;;;;;25.67;64.03;100845.54;107326;1264;59113;-67
2023/08/16 01:17:14;;;;;;;25.20;18.10;;;;;;;25.02;65.87;100847.48;107291;1263;70978;-67
2023/08/16 01:19:42;;;;;;;25.40;18.40;;;;;;;24.79;66.78;100849.14;107441;1267;70739;-67
2023/08/16 01:22:42;;;;;;;23.90;19.00;;;;;;;24.79;66.71;100851.09;107227;1260;180871;-68
2023/08/16 01:25:11;;;;;;;28.20;19.60;;;;;;;24.84;66.97;100850.98;107431;1266;60610;-66
2023/08/16 01:27:38;;;;;;;27.80;19.70;;;;;;;24.89;66.87;100854.50;107543;1260;59126;-68
2023/08/16 01:30:07;;;;;;;29.00;19.90;;;;;;;24.95;66.72;100852.93;107501;1261;71934;-66
2023/08/16 01:32:34;;;;;;;28.60;19.20;;;;;;;24.92;66.86;100848.73;107511;1264;69339;-68
2023/08/16 01:35:03;;;;;;;24.20;17.30;;;;;;;24.67;67.65;100849.61;107622;1260;72702;-67
2023/08/16 01:37:30;;;;;;;26.00;18.00;;;;;;;24.73;67.51;100844.81;107566;1258;60416;-67
2023/08/16 01:40:00;;;;;;;29.10;20.80;;;;;;;24.74;67.36;100845.97;107636;1257;60038;-67
2023/08/16 01:42:32;;;;;;;20.90;17.10;;;;;;;24.72;67.38;100850.05;107487;1258;73056;-67
2023/08/16 01:45:00;;;;;;;25.50;18.70;;;;;;;24.75;66.95;100848.89;107602;1258;70602;-68
2023/08/16 01:47:27;;;;;;;27.60;18.80;;;;;;;24.56;67.68;100848.25;107500;1265;71395;-68
2023/08/16 01:49:56;;;;;;;29.60;19.80;;;;;;;24.64;67.56;100848.98;107617;1260;61807;-67
2023/08/16 01:52:25;;;;;;;27.60;20.60;;;;;;;24.66;67.69;100848.23;107648;1258;59470;-67
2023/08/16 01:54:53;;;;;;;25.80;18.10;;;;;;;24.73;67.58;100842.97;107635;1257;73942;-68
2023/08/16 01:57:21;;;;;;;25.50;19.30;;;;;;;24.87;66.98;100841.59;107558;1261;70160;-67
2023/08/16 01:59:48;;;;;;;28.40;20.20;;;;;;;24.92;66.74;100841.37;107441;1261;71394;-67
2023/08/16 02:02:16;;;;;;;22.20;18.10;;;;;;;24.93;66.74;100842.73;108076;1257;60896;-67
2023/08/16 02:04:43;;;;;;;31.20;20.00;;;;;;;24.90;66.75;100840.10;108208;1251;60210;-67
2023/08/16 02:07:11;;;;;;;19.90;16.70;;;;;;;24.98;66.48;100841.58;108241;1251;73009;-68
2023/08/16 02:09:39;;;;;;;24.20;19.30;;;;;;;25.04;66.05;100840.33;108146;1255;69515;-66
2023/08/16 02:12:07;;;;;;;26.10;19.90;;;;;;;25.08;65.98;100836.78;108218;1254;70474;-67
2023/08/16 02:14:34;;;;;;;25.90;19.10;;;;;;;25.27;65.32;100837.94;108307;1256;60550;-68
2023/08/16 02:17:02;;;;;;;25.90;20.40;;;;;;;25.40;64.85;100835.38;108211;1251;60057;-67
2023/08/16 02:19:29;;;;;;;29.60;21.10;;;;;;;25.31;65.20;100837.95;108228;1251;73007;-67
2023/08/16 02:21:57;;;;;;;22.90;17.70;;;;;;;25.24;65.32;100841.46;108129;1251;70233;-69
2023/08/16 02:24:24;;;;;;;28.40;19.70;;;;;;;25.13;65.70;100842.25;108180;1252;72167;-67
2023/08/16 02:26:52;;;;;;;23.30;17.30;;;;;;;25.06;66.22;100845.51;108226;1250;61746;-68
2023/08/16 02:29:19;;;;;;;25.20;20.10;;;;;;;25.15;66.06;100849.25;108267;1251;59405;-66
2023/08/16 02:31:47;;;;;;;27.40;19.90;;;;;;;25.20;66.01;100852.05;108105;1251;73006;-66
2023/08/16 02:34:14;;;;;;;25.80;18.10;;;;;;;25.23;66.04;100850.38;108066;1251;68994;-68
2023/08/16 02:36:42;;;;;;;28.70;19.50;;;;;;;25.19;66.09;100852.45;108183;1251;72922;-64
2023/08/16 02:39:09;;;;;;;26.30;19.20;;;;;;;25.18;66.45;100856.02;108170;1254;61676;-64
2023/08/16 02:41:36;;;;;;;24.50;18.10;;;;;;;25.26;66.18;100858.01;108225;1250;59516;-66
2023/08/16 02:44:04;;;;;;;26.20;19.40;;;;;;;25.30;66.09;100859.39;108188;1251;71606;-64
2023/08/16 02:46:33;;;;;;;24.10;17.00;;;;;;;25.36;66.06;100859.51;108225;1251;68805;-65
2023/08/16 02:49:01;;;;;;;30.30;20.30;;;;;;;25.40;65.99;100861.16;108258;1251;72800;-65
2023/08/16 02:51:28;;;;;;;26.70;18.50;;;;;;;25.29;66.49;100864.95;108138;1250;61659;-67
2023/08/16 02:53:55;;;;;;;21.90;18.70;;;;;;;25.24;66.68;100862.11;108254;1251;59646;-66
2023/08/16 02:56:23;;;;;;;26.20;20.80;;;;;;;25.23;66.71;100865.45;108129;1257;73059;-66
2023/08/16 02:58:51;;;;;;;17.50;14.90;;;;;;;25.23;67.01;100869.77;108261;1251;69175;-67
2023/08/16 03:01:19;;;;;;;27.10;20.90;;;;;;;25.51;65.91;100864.79;108279;1251;72809;-68
2023/08/16 03:03:46;;;;;;;26.40;21.10;;;;;;;25.45;66.39;100872.31;108218;1256;61912;-67
2023/08/16 03:06:14;;;;;;;24.00;18.10;;;;;;;25.45;66.45;100872.91;108189;1251;59727;-68
2023/08/16 03:08:41;;;;;;;28.10;21.30;;;;;;;25.51;66.41;100871.11;108120;1257;72654;-66
2023/08/16 03:11:09;;;;;;;23.20;17.80;;;;;;;25.61;66.38;100867.75;108272;1256;69185;-67
2023/08/16 03:13:36;;;;;;;31.80;20.10;;;;;;;25.70;66.01;100866.73;108038;1259;72540;-67
2023/08/16 03:16:03;;;;;;;29.00;19.40;;;;;;;25.48;66.81;100868.11;108163;1251;61671;-67
2023/08/16 03:18:31;;;;;;;23.30;17.60;;;;;;;25.24;68.02;100872.52;108246;1251;59490;-68
2023/08/16 03:20:58;;;;;;;25.70;18.40;;;;;;;25.44;67.51;100875.55;108255;1251;73232;-67
2023/08/16 03:23:26;;;;;;;20.90;17.50;;;;;;;25.80;67.11;100875.55;108232;1256;70123;-67
2023/08/16 03:25:53;;;;;;;22.30;16.70;;;;;;;26.13;66.09;100874.06;108104;1254;71644;-67
2023/08/16 03:28:23;;;;;;;23.30;17.30;;;;;;;26.30;65.50;100878.07;108129;1254;60293;-67
2023/08/16 03:30:50;;;;;;;22.20;15.90;;;;;;;26.69;64.46;100879.21;108075;1251;59529;-68
2023/08/16 03:33:18;;;;;;;24.20;16.60;;;;;;;27.02;63.39;100873.94;108113;1251;71885;-66
2023/08/16 03:35:45;;;;;;;25.00;16.10;;;;;;;27.26;62.86;100873.84;108107;1251;68160;-67
2023/08/16 03:38:13;;;;;;;18.70;14.30;;;;;;;27.56;62.08;100874.91;108105;1251;71406;-67
2023/08/16 03:40:40;;;;;;;19.50;14.70;;;;;;;27.71;61.10;100873.48;108136;1257;61744;-67
2023/08/16 03:43:08;;;;;;;19.90;13.60;;;;;;;28.09;60.37;100875.52;108127;1251;60041;-67
2023/08/16 03:45:36;;;;;;;22.80;14.30;;;;;;;28.29;59.58;100874.05;108074;1257;71369;-67
2023/08/16 03:48:04;;;;;;;19.30;13.20;;;;;;;28.63;58.36;100875.88;108014;1260;70470;-64
2023/08/16 03:50:32;;;;;;;19.80;13.40;;;;;;;29.11;57.44;100873.02;108000;1251;72836;-68
2023/08/16 03:52:59;;;;;;;19.00;12.00;;;;;;;29.35;56.25;100870.96;108056;1251;61739;-67
2023/08/16 03:55:29;;;;;;;17.90;12.00;;;;;;;29.49;55.71;100875.86;108070;1251;59657;-67
2023/08/16 03:57:57;;;;;;;18.30;11.30;;;;;;;29.68;54.67;100878.59;108062;1251;72510;-68
2023/08/16 04:00:24;;;;;;;17.80;11.80;;;;;;;29.82;54.05;100881.42;108067;1251;70308;-68
2023/08/16 04:02:52;;;;;;;16.00;11.20;;;;;;;30.00;53.54;100881.42;108021;1251;73369;-67
2023/08/16 04:05:21;;;;;;;19.30;10.70;;;;;;;30.37;52.00;100882.15;108060;1254;60541;-67
2023/08/16 04:07:50;;;;;;;;;;;;;;;30.64;51.10;100885.66;108081;1251;60052;-71
2023/08/16 04:10:17;;;;;;;17.10;10.00;;;;;;;30.92;50.30;100881.50;108118;1251;73031;-67
2023/08/16 04:12:45;;;;;;;11.60;9.90;;;;;;;31.05;49.68;100885.43;108133;1251;70264;-67
2023/08/16 04:15:12;;;;;;;14.00;9.20;;;;;;;31.17;49.01;100890.51;108108;1251;72742;-67
2023/08/16 04:17:40;;;;;;;15.60;9.80;;;;;;;31.33;48.45;100887.77;108131;1251;60660;-68
2023/08/16 04:20:10;;;;;;;14.10;9.10;;;;;;;31.58;47.76;100890.64;108104;1251;59292;-68
2023/08/16 04:22:37;;;;;;;14.50;8.80;;;;;;;31.85;47.08;100889.67;108156;1251;73058;-68
2023/08/16 04:25:06;;;;;;;13.50;8.80;;;;;;;31.97;46.52;100892.27;108140;1251;68985;-68
2023/08/16 04:27:33;;;;;;;16.00;8.60;;;;;;;32.15;46.19;100890.60;108121;1251;73234;-69
2023/08/16 04:30:01;;;;;;;11.30;8.00;;;;;;;32.41;45.07;100894.20;108308;1250;60369;-68
2023/08/16 04:32:29;;;;;;;13.90;7.90;;;;;;;32.59;44.34;100892.88;108254;1251;59575;-67
2023/08/16 04:34:56;;;;;;;11.10;7.80;;;;;;;32.62;44.10;100898.71;108267;1250;71926;-69
2023/08/16 04:37:24;;;;;;;13.40;8.10;;;;;;;32.69;43.64;100897.44;108150;1257;70607;-67
2023/08/16 04:39:53;;;;;;;12.50;8.10;;;;;;;32.81;43.28;100900.27;108276;1251;72022;-68
2023/08/16 04:42:21;;;;;;;13.10;8.30;;;;;;;32.88;43.09;100899.84;108261;1251;59438;-68
2023/08/16 04:44:49;;;;;;;11.70;7.20;;;;;;;33.02;42.68;100903.40;108289;1251;59477;-67
2023/08/16 04:47:17;;;;;;;10.70;7.90;;;;;;;33.37;42.50;100903.54;108232;1250;72474;-67
2023/08/16 04:49:45;;;;;;;15.80;7.90;;;;;;;33.64;41.58;100898.81;108319;1251;61467;-70
2023/08/16 04:52:12;;;;;;;12.30;7.30;;;;;;;33.83;41.08;100901.92;108080;1254;63777;-68
2023/08/16 04:54:40;;;;;;;11.70;6.80;;;;;;;34.04;40.74;100898.00;108226;1254;59621;-68
2023/08/16 04:57:08;;;;;;;10.70;7.40;;;;;;;34.43;40.00;100898.09;108228;1250;59766;-68
2023/08/16 04:59:37;;;;;;;13.70;7.00;;;;;;;34.70;39.22;100899.48;108239;1251;64467;-70
2023/08/16 05:02:05;;;;;;;10.80;6.40;;;;;;;35.04;38.75;100903.19;108073;1257;61288;-69
2023/08/16 05:04:33;;;;;;;13.90;6.60;;;;;;;35.30;38.18;100901.57;108255;1250;62650;-69
2023/08/16 05:07:00;;;;;;;13.40;6.40;;;;;;;35.52;37.06;100903.86;108300;1256;59112;-68
2023/08/16 05:09:28;;;;;;;11.90;6.20;;;;;;;35.12;37.46;100907.83;108271;1251;59693;-69
2023/08/16 05:11:55;;;;;;;10.80;6.60;;;;;;;34.94;37.68;100905.63;108198;1250;64112;-69
2023/08/16 05:14:23;;;;;;;8.40;6.20;;;;;;;35.00;37.44;100907.60;108151;1251;60351;-68
2023/08/16 05:16:50;;;;;;;14.70;6.60;;;;;;;35.06;37.39;100910.48;108240;1251;63235;-67
2023/08/16 05:19:18;;;;;;;13.00;6.70;;;;;;;34.92;37.59;100911.50;108187;1250;60416;-68
2023/08/16 05:21:45;;;;;;;13.20;6.60;;;;;;;34.73;37.85;100911.16;108214;1250;60344;-68
2023/08/16 05:24:13;;;;;;;15.90;7.10;;;;;;;34.22;38.52;100915.94;108195;1251;65034;-69
2023/08/16 05:26:40;;;;;;;15.00;6.90;;;;;;;33.88;38.96;100919.52;108104;1257;61360;-68
2023/08/16 05:29:08;;;;;;;18.10;7.70;;;;;;;33.56;39.69;100921.35;108148;1251;71123;-69
2023/08/16 05:31:36;;;;;;;32.50;8.50;;;;;;;33.42;39.96;100922.94;108138;1253;60402;-68
2023/08/16 05:34:04;;;;;;;17.30;7.00;;;;;;;33.24;40.43;100921.45;108016;1251;60309;-67
2023/08/16 05:36:31;;;;;;;17.70;7.50;;;;;;;33.32;39.93;100920.92;108054;1251;72703;-69
2023/08/16 05:38:59;;;;;;;23.80;7.80;;;;;;;33.81;39.25;100918.91;108125;1251;71027;-68
2023/08/16 05:41:28;;;;;;;10.20;5.80;;;;;;;34.41;37.61;100913.80;108152;1251;63713;-68
2023/08/16 05:43:56;;;;;;;12.90;6.20;;;;;;;34.96;36.25;100914.44;108138;1251;60502;-68
2023/08/16 05:46:24;;;;;;;17.30;5.50;;;;;;;35.31;35.00;100914.17;108243;1251;61493;-69
2023/08/16 05:48:52;;;;;;;17.50;6.40;;;;;;;35.62;34.60;100921.55;108174;1251;64974;-68
2023/08/16 05:51:20;;;;;;;17.30;6.50;;;;;;;36.13;34.05;100915.98;108097;1251;61511;-69
2023/08/16 05:53:47;;;;;;;17.20;5.70;;;;;;;36.64;33.03;100912.15;108122;1251;63900;-68
2023/08/16 05:56:14;;;;;;;16.50;4.70;;;;;;;37.14;32.36;100913.73;108136;1251;60482;-69
2023/08/16 05:58:42;;;;;;;11.50;4.90;;;;;;;37.45;31.52;100912.82;108160;1251;60432;-70
2023/08/16 06:01:09;;;;;;;8.80;4.30;;;;;;;37.56;30.66;100914.06;108121;1257;65002;-68
2023/08/16 06:03:37;;;;;;;10.10;4.70;;;;;;;37.58;30.27;100915.11;108077;1251;61325;-68
2023/08/16 06:06:06;;;;;;;13.90;5.10;;;;;;;37.67;30.44;100916.86;108115;1251;62462;-68
2023/08/16 06:08:34;;;;;;;19.30;5.50;;;;;;;37.84;30.35;100915.95;108100;1254;61481;-69
2023/08/16 06:11:01;;;;;;;19.10;5.30;;;;;;;38.17;30.16;100915.78;108179;1251;59004;-68
2023/08/16 06:13:29;;;;;;;15.40;5.60;;;;;;;38.56;29.59;100916.08;108173;1251;64876;-68
2023/08/16 06:15:56;;;;;;;10.40;4.40;;;;;;;38.82;29.06;100912.36;108192;1251;61383;-68
2023/08/16 06:18:24;;;;;;;15.90;4.90;;;;;;;38.94;28.47;100907.07;108162;1256;63779;-69
2023/08/16 06:20:51;;;;;;;16.10;5.40;;;;;;;39.08;28.37;100907.46;108150;1251;59652;-68
2023/08/16 06:23:18;;;;;;;14.70;6.00;;;;;;;39.17;28.39;100907.79;108195;1251;60214;-68
2023/08/16 06:25:46;;;;;;;20.90;6.10;;;;;;;39.30;28.12;100906.52;108300;1250;65093;-68
2023/08/16 06:28:14;;;;;;;12.00;5.10;;;;;;;39.40;28.23;100906.94;108330;1256;60335;-69
2023/08/16 06:30:41;;;;;;;11.80;5.70;;;;;;;39.37;28.15;100907.16;108321;1251;62472;-69
2023/08/16 06:33:10;;;;;;;8.50;5.10;;;;;;;39.38;28.20;100907.25;108210;1250;60386;-68
2023/08/16 06:35:37;;;;;;;13.10;5.30;;;;;;;39.80;27.72;100907.80;108381;1250;60326;-68
2023/08/16 06:38:06;;;;;;;10.60;4.90;;;;;;;39.88;27.75;100902.36;108434;1250;63715;-68
2023/08/16 06:40:33;;;;;;;19.00;5.80;;;;;;;39.70;28.05;100910.86;108568;1250;60491;-69
2023/08/16 06:43:01;;;;;;;14.70;5.70;;;;;;;39.72;28.17;100910.69;108247;1251;64334;-68
2023/08/16 06:45:32;;;;;;;23.10;6.10;;;;;;;39.89;28.02;100909.98;108433;1252;60450;-69
2023/08/16 06:48:03;;;;;;;11.00;5.00;;;;;;;39.96;27.90;100905.29;108260;1250;60521;-68
2023/08/16 06:50:31;;;;;;;11.10;4.80;;;;;;;39.92;27.93;100904.15;108303;1250;64881;-68
2023/08/16 06:52:58;;;;;;;13.70;5.60;;;;;;;40.13;27.71;100902.29;108260;1250;60342;-69
2023/08/16 06:55:25;;;;;;;10.20;4.80;;;;;;;40.32;27.25;100904.66;108293;1250;63846;-68
2023/08/16 06:57:53;;;;;;;15.90;6.10;;;;;;;40.18;27.32;100904.98;108327;1256;60314;-68
2023/08/16 07:00:20;;;;;;;14.70;6.20;;;;;;;40.33;27.61;100905.50;108278;1250;60533;-67
2023/08/16 07:02:48;;;;;;;11.50;5.70;;;;;;;40.67;27.57;100902.70;108276;1250;65098;-68
2023/08/16 07:05:16;;;;;;;15.60;5.80;;;;;;;40.96;26.98;100900.30;108246;1250;61393;-68
2023/08/16 07:07:43;;;;;;;12.30;5.90;;;;;;;41.07;26.85;100901.22;108293;1250;63028;-69
2023/08/16 07:10:11;;;;;;;14.00;6.20;;;;;;;41.12;26.70;100901.17;108303;1250;59215;-69
2023/08/16 07:12:39;;;;;;;16.90;6.10;;;;;;;41.36;26.35;100900.18;108260;1250;60401;-70
2023/08/16 07:15:06;;;;;;;13.70;5.90;;;;;;;41.33;26.71;100900.21;108290;1251;63639;-70
2023/08/16 07:17:34;;;;;;;14.90;6.70;;;;;;;41.42;26.28;100899.20;108258;1250;61502;-69
2023/08/16 07:20:01;;;;;;;12.90;6.30;;;;;;;41.43;26.64;100896.30;108215;1250;66020;-69
2023/08/16 07:22:29;;;;;;;20.60;6.30;;;;;;;41.45;26.52;100901.48;108192;1250;60412;-70
2023/08/16 07:24:56;;;;;;;16.00;6.80;;;;;;;41.57;26.36;100901.91;108305;1250;60172;-69
2023/08/16 07:27:25;;;;;;;14.20;6.20;;;;;;;41.67;26.26;100903.91;108238;1250;73895;-69
2023/08/16 07:29:54;;;;;;;17.40;6.20;;;;;;;41.66;26.05;100899.63;108269;1251;63203;-70
2023/08/16 07:32:23;;;;;;;11.90;5.30;;;;;;;41.31;26.36;100894.48;108190;1250;63868;-69
2023/08/16 07:34:51;;;;;;;13.70;5.40;;;;;;;40.80;26.87;100893.14;108224;1253;60346;-70
2023/08/16 07:37:21;;;;;;;15.10;5.40;;;;;;;40.63;27.22;100891.67;108200;1250;60173;-70
2023/08/16 07:39:48;;;;;;;19.20;5.50;;;;;;;40.66;27.17;100894.17;108101;1250;63653;-69
2023/08/16 07:42:19;;;;;;;7.20;4.10;;;;;;;40.82;26.78;100895.20;108117;1250;61605;-69
2023/08/16 07:44:49;;;;;;;8.80;4.40;;;;;;;40.88;26.62;100893.23;108337;1251;64469;-70
2023/08/16 07:47:17;;;;;;;9.90;4.40;;;;;;;40.87;26.59;100891.29;108283;1250;60255;-69
2023/08/16 07:49:45;;;;;;;13.20;4.70;;;;;;;41.01;26.44;100893.21;108273;1250;60336;-69
2023/08/16 07:52:13;;;;;;;7.80;3.60;;;;;;;41.25;26.07;100890.88;108223;1250;63778;-69
2023/08/16 07:54:40;;;;;;;6.60;3.00;;;;;;;41.48;25.49;100889.27;108228;1250;61464;-68
2023/08/16 07:57:08;;;;;;;7.30;3.40;;;;;;;41.76;24.79;100891.48;108190;1250;64182;-68
2023/08/16 07:59:36;;;;;;;7.10;4.00;;;;;;;41.76;24.71;100889.71;108187;1250;60437;-69
2023/08/16 08:02:06;;;;;;;7.40;3.40;;;;;;;41.69;24.92;100890.80;108218;1250;59641;-69
2023/08/16 08:04:34;;;;;;;6.50;3.70;;;;;;;41.92;24.54;100886.30;108190;1250;63833;-68
2023/08/16 08:07:02;;;;;;;5.60;3.50;;;;;;;41.80;24.72;100882.94;108161;1250;61745;-69
2023/08/16 08:09:31;;;;;;;6.60;3.50;;;;;;;41.68;24.66;100881.16;108260;1250;66110;-70
2023/08/16 08:11:59;;;;;;;4.80;2.70;;;;;;;41.70;24.74;100882.52;108109;1253;59156;-68
2023/08/16 08:14:26;;;;;;;7.70;3.30;;;;;;;41.71;24.46;100882.54;108152;1250;60400;-68
2023/08/16 08:16:55;;;;;;;9.40;3.10;;;;;;;41.71;24.88;100881.75;108263;1250;64987;-68
2023/08/16 08:19:23;;;;;;;6.50;2.70;;;;;;;42.04;24.38;100885.20;108217;1250;61601;-69
2023/08/16 08:21:51;;;;;;;7.50;3.10;;;;;;;42.31;24.09;100885.11;108265;1253;63858;-69
2023/08/16 08:24:18;;;;;;;8.40;3.30;;;;;;;42.47;24.00;100881.74;108177;1253;60400;-69
2023/08/16 08:26:48;;;;;;;5.20;2.80;;;;;;;42.40;24.10;100879.77;108073;1257;60443;-69
2023/08/16 08:29:15;;;;;;;3.90;2.90;;;;;;;42.43;24.14;100871.92;108092;1251;63839;-69
2023/08/16 08:31:43;;;;;;;14.00;3.80;;;;;;;42.44;23.90;100868.12;108065;1251;61494;-69
2023/08/16 08:34:10;;;;;;;5.70;3.00;;;;;;;42.32;23.84;100869.94;108047;1251;64009;-69
2023/08/16 08:36:38;;;;;;;4.60;3.10;;;;;;;42.25;24.21;100869.83;108129;1251;60428;-68
2023/08/16 08:39:05;;;;;;;6.60;2.90;;;;;;;42.33;24.43;100866.42;108112;1251;60419;-68
2023/08/16 08:41:33;;;;;;;9.00;3.70;;;;;;;42.71;24.03;100866.14;108120;1251;64889;-68
2023/08/16 08:44:16;;;;;;;6.10;2.90;;;;;;;42.85;23.71;100867.59;108120;1251;61365;-69
2023/08/16 08:46:44;;;;;;;13.10;3.20;;;;;;;42.71;23.82;100867.96;108146;1251;63769;-68
2023/08/16 08:49:12;;;;;;;5.40;2.90;;;;;;;42.54;24.14;100866.46;108190;1251;60393;-69
2023/08/16 08:51:40;;;;;;;6.30;3.10;;;;;;;42.38;23.83;100871.39;108137;1251;60236;-70
2023/08/16 08:54:07;;;;;;;3.80;2.70;;;;;;;42.51;23.96;100869.30;108175;1257;64941;-69
2023/08/16 08:56:36;;;;;;;6.20;2.80;;;;;;;42.48;23.61;100867.34;108156;1251;72748;-70
2023/08/16 08:59:03;;;;;;;4.20;2.80;;;;;;;42.80;23.51;100863.24;107932;1257;63718;-69
2023/08/16 09:01:33;;;;;;;;;;;;;;;43.38;23.25;100860.45;108148;1253;60463;-68
2023/08/16 09:04:02;;;;;;;4.50;2.80;;;;;;;43.69;22.88;100861.02;108114;1251;60298;-69
2023/08/16 09:06:30;;;;;;;5.20;3.00;;;;;;;43.62;22.48;100857.98;108047;1251;63955;-69
2023/08/16 09:08:57;;;;;;;7.30;3.10;;;;;;;43.25;22.84;100852.21;107983;1258;60232;-69
2023/08/16 09:11:25;;;;;;;7.10;3.10;;;;;;;43.08;22.98;100847.70;107938;1254;66196;-70
2023/08/16 09:13:52;;;;;;;7.30;3.20;;;;;;;43.09;23.32;100849.11;107944;1253;60406;-68
2023/08/16 09:16:20;;;;;;;4.90;3.30;;;;;;;43.00;23.40;100845.16;107939;1253;60296;-69
2023/08/16 09:18:48;;;;;;;9.20;3.00;;;;;;;42.79;23.58;100849.04;108041;1253;64873;-69
2023/08/16 09:21:18;;;;;;;4.30;2.80;;;;;;;42.72;23.48;100845.45;108064;1253;62227;-69
2023/08/16 09:23:54;;;;;;;5.30;3.10;;;;;;;42.81;23.68;100847.77;107868;1253;62966;-68
2023/08/16 09:26:24;;;;;;;7.30;3.30;;;;;;;43.09;23.43;100841.85;107952;1253;60315;-69
2023/08/16 09:29:02;;;;;;;6.30;2.60;;;;;;;43.58;23.12;100839.79;107991;1252;60507;-70
2023/08/16 09:31:37;;;;;;;5.70;3.20;;;;;;;44.05;22.72;100839.00;108054;1254;67169;-70
2023/08/16 09:34:08;;;;;;;6.30;2.90;;;;;;;44.18;22.44;100840.14;108075;1252;61347;-70
2023/08/16 09:36:35;;;;;;;6.80;3.10;;;;;;;43.98;22.34;100839.20;107962;1253;63768;-71
2023/08/16 09:39:08;;;;;;;6.20;3.10;;;;;;;43.99;22.28;100836.12;108098;1253;60400;-69
2023/08/16 09:41:50;;;;;;;6.90;2.90;;;;;;;43.82;22.49;100836.59;108125;1253;59112;-70
2023/08/16 09:44:36;;;;;;;7.10;3.00;;;;;;;44.08;22.64;100836.81;108049;1253;63812;-70
2023/08/16 09:47:12;;;;;;;5.90;3.10;;;;;;;43.77;22.84;100834.35;108030;1253;61468;-69
2023/08/16 09:49:40;;;;;;;4.10;3.00;;;;;;;43.64;22.94;100830.88;108186;1253;63825;-70
2023/08/16 09:52:11;;;;;;;4.80;2.80;;;;;;;43.42;23.31;100829.95;108044;1252;60423;-69
2023/08/16 09:54:40;;;;;;;7.80;3.10;;;;;;;43.20;23.68;100831.85;108040;1253;60545;-70
2023/08/16 09:57:08;;;;;;;6.10;3.00;;;;;;;43.22;23.74;100832.13;108041;1253;64923;-68
2023/08/16 09:59:38;;;;;;;6.50;2.80;;;;;;;43.46;23.37;100828.78;107926;1253;61724;-70
2023/08/16 10:02:11;;;;;;;8.10;3.40;;;;;;;43.58;23.26;100828.27;107959;1253;62484;-69
2023/08/16 10:04:41;;;;;;;5.20;2.90;;;;;;;43.93;22.95;100826.12;108082;1252;60400;-70
2023/08/16 10:07:11;;;;;;;6.20;2.80;;;;;;;43.93;23.29;100821.95;108061;1252;60142;-69
2023/08/16 10:09:43;;;;;;;4.30;3.00;;;;;;;44.21;22.57;100824.67;108095;1253;65157;-70
2023/08/16 10:12:11;;;;;;;9.10;3.20;;;;;;;44.53;22.43;100821.73;108098;1253;61376;-69
2023/08/16 10:14:38;;;;;;;10.20;2.80;;;;;;;44.44;22.45;100824.88;108061;1253;62541;-69
2023/08/16 10:17:06;;;;;;;5.00;3.10;;;;;;;44.20;22.49;100827.33;108081;1254;60313;-69
2023/08/16 10:19:37;;;;;;;6.80;3.30;;;;;;;43.83;22.71;100829.39;107972;1251;60181;-70
2023/08/16 10:22:37;;;;;;;11.20;3.20;;;;;;;43.44;23.45;100823.15;108056;1258;65450;-69
2023/08/16 10:25:10;;;;;;;14.00;5.70;;;;;;;43.12;23.63;100820.61;108159;1250;61319;-69
2023/08/16 10:27:39;;;;;;;12.00;3.50;;;;;;;42.80;23.72;100817.37;108237;1252;63774;-69
2023/08/16 10:30:08;;;;;;;9.40;2.90;;;;;;;42.81;24.01;100817.06;108195;1253;60383;-70
2023/08/16 10:32:41;;;;;;;4.90;3.00;;;;;;;42.91;23.63;100824.92;108264;1250;59223;-70
2023/08/16 10:35:09;;;;;;;9.50;3.20;;;;;;;42.93;23.33;100821.52;108111;1258;65004;-70
2023/08/16 10:37:36;;;;;;;3.40;2.80;;;;;;;43.05;23.39;100819.23;108217;1250;61759;-69
2023/08/16 10:40:17;;;;;;;9.50;3.10;;;;;;;43.23;23.05;100821.48;108276;1250;63852;-69
2023/08/16 10:42:56;;;;;;;4.90;2.70;;;;;;;43.41;22.70;100821.02;108199;1250;59145;-70
2023/08/16 10:45:29;;;;;;;8.60;3.00;;;;;;;43.74;22.44;100822.19;108223;1250;59291;-69
2023/08/16 10:48:11;;;;;;;5.20;2.80;;;;;;;43.81;22.34;100821.22;108246;1250;67031;-70
2023/08/16 10:50:39;;;;;;;8.40;3.30;;;;;;;43.96;21.88;100820.19;108359;1250;61389;-70
2023/08/16 10:53:08;;;;;;;12.60;3.00;;;;;;;43.72;21.73;100820.55;108131;1250;63770;-69
2023/08/16 10:55:35;;;;;;;9.10;2.60;;;;;;;43.47;21.94;100818.80;108203;1250;60441;-70
2023/08/16 10:58:03;;;;;;;4.70;2.70;;;;;;;43.09;22.40;100817.64;108195;1250;60299;-70
2023/08/16 11:00:35;;;;;;;4.10;2.80;;;;;;;43.10;21.96;100813.38;108164;1250;63869;-69
2023/08/16 11:03:06;;;;;;;5.10;2.50;;;;;;;43.15;21.91;100814.84;108226;1250;61317;-69
2023/08/16 11:05:34;;;;;;;4.90;2.60;;;;;;;43.21;21.17;100813.00;108220;1251;63799;-69
2023/08/16 11:08:02;;;;;;;6.90;2.50;;;;;;;43.32;20.92;100812.54;108197;1256;60352;-70
2023/08/16 11:10:36;;;;;;;6.80;2.70;;;;;;;43.42;20.91;100807.05;108228;1251;60278;-70
2023/08/16 11:13:08;;;;;;;4.80;2.60;;;;;;;43.76;20.57;100803.95;108287;1251;63879;-70
2023/08/16 11:15:35;;;;;;;6.70;2.40;;;;;;;43.75;20.30;100799.91;108213;1251;61951;-68
2023/08/16 11:18:04;;;;;;;9.10;2.50;;;;;;;43.77;20.07;100794.38;108198;1252;62526;-69